Time;durP1;ratioP1;P1;durP2;ratioP2;P2;SDS_P1;SDS_P2;PMS_P1;PMS_P2;Temp;Humidity;BMP_temperature;BMP_pressure;BME280_temperature;BME280_humidity;BME280_pressure;Samples;Min_cycle;Max_cycle;Signal;HPM_P1;HPM_P2
2022/12/30 00:04:27;;;;;;;12.55;4.35;;;;;;;3.78;100.00;100888.56;10430421;28;20157;-83
2022/12/30 00:09:27;;;;;;;17.17;4.00;;;;;;;3.74;100.00;100899.47;10414673;28;20546;-83
2022/12/30 00:36:11;;;;;;;15.32;4.53;;;;;;;3.51;100.00;100893.47;10457373;28;20567;-83
2022/12/30 00:46:31;;;;;;;11.10;4.07;;;;;;;3.41;100.00;100901.28;10431955;28;20072;-83
2022/12/30 00:56:50;;;;;;;10.32;3.45;;;;;;;3.33;100.00;100905.91;10397885;28;20045;-84
2022/12/30 01:01:51;;;;;;;20.77;5.45;;;;;;;3.25;100.00;100909.56;10474801;28;20076;-83
2022/12/30 01:06:51;;;;;;;13.20;4.63;;;;;;;3.28;100.00;100904.63;10435671;28;20045;-83
2022/12/30 01:12:10;;;;;;;10.80;3.67;;;;;;;3.27;100.00;100901.91;10464046;28;20040;-83
2022/12/30 01:17:12;;;;;;;21.38;3.97;;;;;;;3.30;100.00;100915.09;10433235;28;20382;-84
2022/12/30 01:22:13;;;;;;;;;;;;;;;3.35;100.00;100916.34;10432024;28;20099;-83
2022/12/30 01:27:13;;;;;;;12.93;3.28;;;;;;;3.44;100.00;100921.34;10410491;28;20019;-84
2022/12/30 01:32:16;;;;;;;14.38;5.25;;;;;;;3.13;100.00;100926.72;10471244;28;20063;-83
2022/12/30 01:37:16;;;;;;;;;;;;;;;3.06;100.00;100934.00;10430742;28;20045;-84
2022/12/30 01:42:24;;;;;;;24.30;5.38;;;;;;;2.96;100.00;100936.63;10476347;28;20299;-83
2022/12/30 01:47:37;;;;;;;18.50;6.43;;;;;;;3.04;100.00;100930.41;10415520;28;20040;-84
2022/12/30 01:52:40;;;;;;;19.77;4.45;;;;;;;2.92;100.00;100925.13;10442238;28;20037;-84
2022/12/30 01:57:42;;;;;;;11.52;5.50;;;;;;;2.80;100.00;100931.91;10388219;28;20036;-83
2022/12/30 02:02:42;;;;;;;15.47;4.17;;;;;;;2.88;100.00;100948.06;10476615;28;20068;-83
2022/12/30 02:07:45;;;;;;;15.68;3.13;;;;;;;2.91;100.00;100950.88;10415520;28;20122;-83
2022/12/30 02:12:46;;;;;;;10.57;4.38;;;;;;;3.00;100.00;100961.97;10464739;28;20119;-83
2022/12/30 02:18:11;;;;;;;18.58;4.25;;;;;;;2.81;100.00;100974.19;10430749;28;20040;-83
2022/12/30 02:23:41;;;;;;;16.60;3.42;;;;;;;2.91;100.00;100982.78;10487024;28;20037;-84
2022/12/30 02:28:58;;;;;;;9.93;3.63;;;;;;;2.82;100.00;100966.53;10417675;28;20514;-83
2022/12/30 02:34:01;;;;;;;10.32;3.25;;;;;;;2.67;100.00;100960.13;10488260;28;20493;-83
2022/12/30 02:39:06;;;;;;;12.93;4.10;;;;;;;2.69;100.00;100954.34;10426797;28;20052;-84
2022/12/30 02:49:32;;;;;;;16.17;4.22;;;;;;;2.40;100.00;100946.78;10420041;28;20124;-84
2022/12/30 02:54:33;;;;;;;26.27;5.63;;;;;;;2.49;100.00;100944.94;10440712;28;20044;-85
2022/12/30 03:05:06;;;;;;;14.38;5.15;;;;;;;2.51;100.00;100940.81;10435323;28;20053;-85
2022/12/30 03:15:40;;;;;;;14.10;6.47;;;;;;;2.54;100.00;100920.38;10464495;28;20064;-85
2022/12/30 03:20:40;;;;;;;;;;;;;;;2.55;100.00;100927.38;10471954;28;20045;-85
2022/12/30 03:31:02;;;;;;;18.65;4.85;;;;;;;2.37;100.00;100919.03;10445112;28;20059;-85
2022/12/30 03:36:22;;;;;;;12.88;5.22;;;;;;;2.27;100.00;100913.91;10460739;28;20048;-85
2022/12/30 03:41:23;;;;;;;11.52;4.80;;;;;;;2.33;100.00;100912.69;10452176;28;20479;-86
2022/12/30 03:46:31;;;;;;;14.18;4.80;;;;;;;2.25;100.00;100908.59;10472561;28;20053;-84
2022/12/30 03:51:32;;;;;;;22.75;5.43;;;;;;;2.29;100.00;100900.31;10435828;28;20041;-85
2022/12/30 03:56:32;;;;;;;15.43;4.97;;;;;;;2.30;100.00;100904.69;10399773;28;20037;-85
2022/12/30 04:01:33;;;;;;;15.52;3.92;;;;;;;2.20;100.00;100903.06;10468732;28;20045;-84
2022/12/30 04:06:33;;;;;;;18.98;6.22;;;;;;;1.97;100.00;100900.28;10470307;28;20120;-85
2022/12/30 04:11:34;;;;;;;14.88;4.90;;;;;;;1.72;100.00;100898.25;10476151;28;20060;-85
2022/12/30 04:16:34;;;;;;;13.48;6.60;;;;;;;1.83;100.00;100886.22;10470569;28;20034;-85
2022/12/30 04:21:35;;;;;;;19.25;6.72;;;;;;;1.86;100.00;100900.28;10481373;28;20116;-85
2022/12/30 04:26:35;;;;;;;26.40;5.55;;;;;;;1.95;100.00;100905.28;10421270;28;20120;-85
2022/12/30 04:31:36;;;;;;;12.20;6.03;;;;;;;2.08;100.00;100906.31;10433446;28;20071;-87
2022/12/30 04:36:36;;;;;;;22.73;5.30;;;;;;;2.20;100.00;100910.81;10449394;28;20124;-85
2022/12/30 04:41:37;;;;;;;16.25;5.43;;;;;;;2.32;100.00;100925.50;10453952;28;20123;-85
2022/12/30 04:46:37;;;;;;;21.13;6.95;;;;;;;2.10;100.00;100916.00;10441786;28;20495;-84
2022/12/30 04:51:38;;;;;;;13.57;4.45;;;;;;;2.10;100.00;100918.59;10401690;28;20128;-84
2022/12/30 04:56:38;;;;;;;29.98;4.68;;;;;;;1.94;100.00;100907.75;10414962;28;20060;-83
2022/12/30 05:01:39;;;;;;;18.50;4.90;;;;;;;1.95;100.00;100904.41;10418683;28;20500;-84
2022/12/30 05:06:39;;;;;;;20.83;7.22;;;;;;;1.96;100.00;100917.44;10415530;28;20528;-84
2022/12/30 05:11:40;;;;;;;25.02;6.78;;;;;;;2.06;100.00;100921.69;10402255;28;20056;-85
2022/12/30 05:16:40;;;;;;;23.90;8.05;;;;;;;1.89;100.00;100922.84;10411205;28;20037;-85
2022/12/30 05:21:41;;;;;;;13.73;6.55;;;;;;;1.82;100.00;100910.22;10402589;28;20494;-85
2022/12/30 05:26:41;;;;;;;11.75;4.75;;;;;;;1.96;100.00;100911.38;10399722;28;20044;-85
2022/12/30 05:31:43;;;;;;;20.60;5.28;;;;;;;1.93;100.00;100899.09;10399449;28;20037;-84
2022/12/30 05:36:43;;;;;;;22.20;7.47;;;;;;;1.80;100.00;100906.59;10412017;28;20512;-84
2022/12/30 05:41:44;;;;;;;12.95;4.30;;;;;;;2.00;100.00;100910.84;10436286;28;20127;-82
2022/12/30 05:46:44;;;;;;;19.55;6.18;;;;;;;2.04;100.00;100908.63;10483668;28;20088;-81
2022/12/30 05:51:47;;;;;;;13.25;5.32;;;;;;;2.01;100.00;100895.47;10439736;28;20480;-80
2022/12/30 05:56:48;;;;;;;14.07;6.32;;;;;;;1.96;100.00;100896.78;10444324;28;20079;-81
2022/12/30 06:01:48;;;;;;;20.15;6.43;;;;;;;2.03;100.00;100898.19;10410348;28;20401;-80
2022/12/30 06:06:49;;;;;;;13.32;5.10;;;;;;;2.08;100.00;100894.31;10407753;28;20061;-84
2022/12/30 06:11:49;;;;;;;20.95;6.80;;;;;;;2.15;100.00;100875.06;10484699;28;20083;-84
2022/12/30 06:16:50;;;;;;;19.67;6.95;;;;;;;2.27;100.00;100860.53;10487628;28;20047;-83
2022/12/30 06:21:50;;;;;;;20.13;6.43;;;;;;;2.15;100.00;100862.13;10465255;28;20120;-82
2022/12/30 06:26:51;;;;;;;17.00;5.00;;;;;;;2.04;100.00;100861.28;10465132;28;20470;-84
2022/12/30 06:31:51;;;;;;;24.42;10.20;;;;;;;2.05;100.00;100853.63;10388455;28;20050;-85
2022/12/30 06:36:52;;;;;;;10.32;4.47;;;;;;;2.10;100.00;100856.63;10417578;28;20043;-85
2022/12/30 06:41:52;;;;;;;20.65;5.90;;;;;;;2.38;100.00;100865.69;10389165;28;20050;-84
2022/12/30 06:46:53;;;;;;;13.10;5.30;;;;;;;2.37;100.00;100863.88;10394692;28;20041;-83
2022/12/30 06:51:53;;;;;;;17.52;4.57;;;;;;;2.29;100.00;100851.25;10378930;28;20120;-84
2022/12/30 06:56:54;;;;;;;25.75;7.13;;;;;;;2.22;100.00;100853.22;10380053;28;20091;-84
2022/12/30 07:01:54;;;;;;;26.45;8.93;;;;;;;2.19;100.00;100841.88;10383604;28;20537;-84
2022/12/30 07:06:55;;;;;;;20.95;7.20;;;;;;;2.23;100.00;100830.09;10394108;28;20040;-84
2022/12/30 07:11:55;;;;;;;15.60;3.55;;;;;;;2.25;100.00;100813.03;10375269;28;20041;-84
2022/12/30 07:16:56;;;;;;;10.30;5.10;;;;;;;2.43;100.00;100804.94;10397336;28;20059;-83
2022/12/30 07:21:56;;;;;;;16.63;4.05;;;;;;;2.42;100.00;100783.41;10392620;28;20049;-85
2022/12/30 07:26:57;;;;;;;11.95;3.05;;;;;;;2.47;100.00;100782.06;10428946;28;20052;-85
2022/12/30 07:31:57;;;;;;;12.65;3.85;;;;;;;2.60;100.00;100781.34;10454782;28;21665;-85
2022/12/30 07:36:58;;;;;;;16.23;4.13;;;;;;;2.69;100.00;100783.75;10420097;28;20037;-85
2022/12/30 07:41:58;;;;;;;8.18;2.83;;;;;;;2.77;100.00;100768.84;10420536;28;20037;-85
2022/12/30 07:46:59;;;;;;;8.38;2.55;;;;;;;2.91;100.00;100763.03;10417763;28;20514;-85
2022/12/30 07:51:59;;;;;;;8.77;3.22;;;;;;;3.05;100.00;100758.03;10413450;28;20041;-85
2022/12/30 07:57:00;;;;;;;10.85;2.88;;;;;;;2.98;100.00;100743.75;10470096;28;20039;-85
2022/12/30 08:02:00;;;;;;;6.90;3.35;;;;;;;3.00;100.00;100738.66;10433894;28;20128;-84
2022/12/30 08:07:01;;;;;;;9.00;3.08;;;;;;;3.06;100.00;100721.94;10435668;28;20393;-85
2022/12/30 08:12:01;;;;;;;11.02;3.65;;;;;;;3.22;100.00;100708.47;10433693;28;20043;-85
2022/12/30 08:17:02;;;;;;;8.02;4.68;;;;;;;3.34;100.00;100707.56;10412237;28;20044;-85
2022/12/30 08:22:02;;;;;;;6.55;2.97;;;;;;;3.47;100.00;100696.47;10427926;28;20120;-84
2022/12/30 08:27:03;;;;;;;7.00;2.72;;;;;;;3.53;100.00;100694.31;10407360;28;20485;-85
2022/12/30 08:32:04;;;;;;;7.05;3.33;;;;;;;3.72;100.00;100682.72;10467490;28;20041;-87
2022/12/30 08:37:04;;;;;;;25.90;12.40;;;;;;;3.95;100.00;100674.00;10422492;28;20040;-86
2022/12/30 08:42:05;;;;;;;24.65;13.43;;;;;;;4.30;100.00;100651.38;10429018;28;20112;-88
2022/12/30 08:47:05;;;;;;;10.65;3.53;;;;;;;4.55;100.00;100654.88;10413780;28;20041;-87
2022/12/30 08:52:06;;;;;;;8.60;3.67;;;;;;;4.74;100.00;100637.97;10406271;28;20037;-87
2022/12/30 08:57:08;;;;;;;6.50;2.20;;;;;;;4.89;100.00;100629.41;10439777;28;20124;-87
2022/12/30 09:02:11;;;;;;;;;;;;;;;5.18;100.00;100609.69;10447180;28;20379;-87
2022/12/30 09:07:12;;;;;;;6.53;2.00;;;;;;;5.27;100.00;100602.50;10442113;28;19928;-84
2022/12/30 09:12:12;;;;;;;4.32;1.92;;;;;;;5.46;100.00;100581.22;10424561;28;20135;-82
2022/12/30 09:17:13;;;;;;;8.85;3.63;;;;;;;5.63;100.00;100579.69;10383702;28;20057;-87
2022/12/30 09:22:13;;;;;;;3.72;2.17;;;;;;;5.80;100.00;100561.66;10415252;28;20034;-86
2022/12/30 09:27:14;;;;;;;13.07;2.58;;;;;;;5.89;100.00;100544.06;10422781;28;20040;-85
2022/12/30 09:32:15;;;;;;;5.57;1.90;;;;;;;6.05;100.00;100535.50;10415094;28;20135;-88
2022/12/30 09:37:15;;;;;;;9.73;2.90;;;;;;;6.22;100.00;100538.22;10436526;28;20171;-88
2022/12/30 09:47:47;;;;;;;3.60;1.10;;;;;;;6.87;100.00;100524.72;10408341;28;20036;-89
2022/12/30 09:52:56;;;;;;;6.63;1.77;;;;;;;7.05;100.00;100518.75;10472564;28;20068;-86
2022/12/30 09:57:58;;;;;;;9.50;1.75;;;;;;;7.16;100.00;100506.31;10433245;28;20121;-88
2022/12/30 10:03:16;;;;;;;4.35;1.98;;;;;;;7.25;100.00;100511.16;10438368;28;20048;-86
2022/12/30 10:08:58;;;;;;;4.05;2.05;;;;;;;7.35;100.00;100509.13;10498624;28;20480;-88
2022/12/30 10:14:01;;;;;;;4.35;1.48;;;;;;;7.46;100.00;100481.09;10416268;28;20413;-88
2022/12/30 10:19:04;;;;;;;;;;;;;;;7.48;100.00;100475.94;10436876;28;20132;-87
2022/12/30 10:24:17;;;;;;;9.77;1.98;;;;;;;7.46;100.00;100465.47;10445960;28;20399;-86
2022/12/30 10:29:32;;;;;;;5.53;2.45;;;;;;;7.59;100.00;100446.16;10428372;28;20099;-84
2022/12/30 10:34:33;;;;;;;3.67;1.92;;;;;;;7.55;100.00;100432.91;10409158;28;20057;-84
2022/12/30 10:39:35;;;;;;;5.17;1.63;;;;;;;7.53;100.00;100430.22;10437213;28;20417;-85
2022/12/30 10:44:48;;;;;;;9.83;1.90;;;;;;;7.53;100.00;100408.50;10456416;28;20052;-84
2022/12/30 10:50:00;;;;;;;4.15;1.52;;;;;;;7.46;100.00;100396.84;10488417;28;20274;-83
2022/12/30 10:55:24;;;;;;;9.00;2.47;;;;;;;7.41;100.00;100377.50;10443822;28;20680;-82
2022/12/30 11:00:25;;;;;;;11.57;3.35;;;;;;;7.55;100.00;100347.84;10378450;28;20042;-82
2022/12/30 11:05:35;;;;;;;4.72;2.72;;;;;;;7.60;100.00;100319.47;10436312;28;20408;-83
2022/12/30 11:10:36;;;;;;;7.55;1.42;;;;;;;7.57;100.00;100298.47;10442511;28;20060;-84
2022/12/30 11:15:53;;;;;;;7.00;2.20;;;;;;;7.49;100.00;100277.22;10439468;28;20116;-84
2022/12/30 11:20:55;;;;;;;17.20;7.10;;;;;;;7.53;100.00;100275.69;10445905;28;20053;-84
2022/12/30 11:25:55;;;;;;;;;;;;;;;7.52;100.00;100256.56;10463937;28;20447;-86
2022/12/30 11:31:07;;;;;;;6.57;1.60;;;;;;;7.49;100.00;100238.19;10406742;28;19975;-83
2022/12/30 11:36:10;;;;;;;5.22;1.75;;;;;;;7.51;100.00;100231.34;10383955;28;20095;-83
2022/12/30 11:41:17;;;;;;;5.13;1.50;;;;;;;7.45;100.00;100215.41;10414952;28;20056;-83
2022/12/30 11:46:22;;;;;;;5.30;1.75;;;;;;;7.55;100.00;100206.34;10408196;28;20521;-83
2022/12/30 11:51:24;;;;;;;6.95;1.77;;;;;;;7.73;100.00;100181.22;10401068;28;20037;-81
2022/12/30 11:56:25;;;;;;;6.30;1.38;;;;;;;7.96;100.00;100170.06;10415379;28;20044;-82
2022/12/30 12:01:25;;;;;;;10.23;3.88;;;;;;;7.97;100.00;100146.72;10409352;28;20141;-81
2022/12/30 12:06:26;;;;;;;4.47;1.25;;;;;;;8.01;100.00;100134.69;10444242;28;20106;-81
2022/12/30 12:11:30;;;;;;;7.40;2.10;;;;;;;8.04;100.00;100124.41;10457183;28;20067;-82
2022/12/30 12:16:47;;;;;;;8.43;1.90;;;;;;;8.02;100.00;100110.41;10475139;28;20043;-82
2022/12/30 12:21:49;;;;;;;8.80;1.55;;;;;;;8.02;100.00;100089.56;10473908;28;20037;-81
2022/12/30 12:27:26;;;;;;;3.33;1.05;;;;;;;8.01;100.00;100073.06;10427043;28;20382;-80
2022/12/30 12:32:26;;;;;;;7.90;1.48;;;;;;;8.03;100.00;100067.91;10323482;28;20439;-81
2022/12/30 12:37:26;;;;;;;6.35;1.20;;;;;;;7.97;100.00;100042.47;10407523;28;20060;-82
2022/12/30 12:42:51;;;;;;;3.00;1.00;;;;;;;7.82;100.00;100039.19;10437085;28;20064;-82
2022/12/30 12:48:02;;;;;;;3.72;1.38;;;;;;;7.76;100.00;100013.72;10441208;28;20044;-81
2022/12/30 12:53:14;;;;;;;2.17;0.98;;;;;;;7.50;100.00;100003.00;10449541;28;20061;-80
2022/12/30 12:58:14;;;;;;;6.28;1.55;;;;;;;7.33;100.00;100003.13;10401778;28;20045;-80
2022/12/30 13:03:33;;;;;;;1.90;1.23;;;;;;;7.20;100.00;99996.47;10402787;28;20044;-82
2022/12/30 13:09:11;;;;;;;4.40;0.95;;;;;;;7.06;100.00;99992.31;10377753;28;20559;-83
2022/12/30 13:14:42;;;;;;;4.43;1.60;;;;;;;6.91;100.00;99961.22;10431300;28;20132;-83
2022/12/30 13:20:00;;;;;;;4.00;1.75;;;;;;;6.98;100.00;99942.50;10422992;28;20400;-81
2022/12/30 13:25:01;;;;;;;8.45;1.40;;;;;;;6.95;100.00;99908.53;10416468;28;20041;-83
2022/12/30 13:30:02;;;;;;;6.97;1.45;;;;;;;6.97;100.00;99906.91;10400748;28;20071;-83
2022/12/30 13:35:27;;;;;;;4.95;1.67;;;;;;;6.94;100.00;99875.53;10412876;28;20577;-81
2022/12/30 13:40:34;;;;;;;4.75;1.45;;;;;;;6.95;100.00;99851.31;10422378;28;20064;-82
2022/12/30 13:45:36;;;;;;;4.57;1.17;;;;;;;6.96;100.00;99837.47;10416043;28;20554;-85
2022/12/30 13:50:38;;;;;;;3.70;1.35;;;;;;;6.98;100.00;99828.03;10389045;28;20486;-85
2022/12/30 13:55:47;;;;;;;5.63;1.30;;;;;;;7.00;100.00;99828.13;10410410;28;20041;-83
2022/12/30 14:00:48;;;;;;;7.18;1.85;;;;;;;6.94;100.00;99807.03;10449205;28;20037;-83
2022/12/30 14:05:49;;;;;;;6.47;1.60;;;;;;;6.89;100.00;99804.19;10437991;28;20112;-84
2022/12/30 14:10:59;;;;;;;3.70;1.55;;;;;;;6.76;100.00;99814.03;10421037;28;20487;-83
2022/12/30 14:16:04;;;;;;;4.38;1.88;;;;;;;6.74;100.00;99846.00;10439007;28;20073;-85
2022/12/30 14:21:26;;;;;;;5.97;1.70;;;;;;;6.71;100.00;99836.34;10450727;28;20400;-85
2022/12/30 14:26:26;;;;;;;5.28;2.45;;;;;;;6.72;100.00;99858.06;10412263;28;20060;-85
2022/12/30 14:31:48;;;;;;;5.18;1.88;;;;;;;6.71;100.00;99836.34;10383443;28;20041;-82
2022/12/30 14:36:59;;;;;;;6.97;1.58;;;;;;;6.74;100.00;99820.88;10419110;28;20103;-81
2022/12/30 14:42:02;;;;;;;3.63;2.03;;;;;;;6.72;100.00;99814.72;10416464;28;20044;-81
2022/12/30 14:47:04;;;;;;;5.47;1.88;;;;;;;6.78;100.00;99841.81;10399333;28;20098;-80
2022/12/30 14:52:15;;;;;;;4.05;1.80;;;;;;;6.84;100.00;99829.09;10405007;28;20038;-82
2022/12/30 14:57:25;;;;;;;3.70;1.65;;;;;;;6.87;100.00;99816.25;10406073;28;20512;-78
2022/12/30 15:02:27;;;;;;;10.50;3.10;;;;;;;6.95;100.00;99821.81;10430663;28;20378;-78
2022/12/30 15:07:30;;;;;;;;;;;;;;;6.99;100.00;99821.13;10433352;28;20037;-79
2022/12/30 15:12:31;;;;;;;3.90;0.80;;;;;;;7.13;100.00;99819.13;10442616;28;19920;-81
2022/12/30 15:17:34;;;;;;;2.15;1.27;;;;;;;7.32;100.00;99813.03;10371954;28;20041;-81
2022/12/30 15:22:36;;;;;;;9.75;4.75;;;;;;;7.47;100.00;99820.63;10434530;28;20441;-84
2022/12/30 15:27:37;;;;;;;2.65;1.08;;;;;;;7.62;100.00;99825.59;10455537;28;20035;-83
2022/12/30 15:32:38;;;;;;;2.38;1.08;;;;;;;7.68;100.00;99833.69;10389230;28;20499;-85
2022/12/30 15:37:38;;;;;;;5.15;1.30;;;;;;;7.71;100.00;99836.41;10454405;28;20065;-85
2022/12/30 15:42:39;;;;;;;1.13;0.60;;;;;;;7.70;100.00;99834.63;10419204;28;20559;-83
2022/12/30 15:47:40;;;;;;;1.83;1.02;;;;;;;7.72;100.00;99848.63;10431843;28;20045;-83
2022/12/30 15:52:41;;;;;;;2.33;1.42;;;;;;;7.69;100.00;99850.19;10421511;28;20065;-82
2022/12/30 15:57:42;;;;;;;1.20;0.52;;;;;;;7.73;100.00;99845.19;10405553;28;20527;-82
2022/12/30 16:02:42;;;;;;;2.08;0.75;;;;;;;7.78;100.00;99856.69;10400679;28;20038;-85
2022/12/30 16:07:43;;;;;;;2.67;1.50;;;;;;;7.79;100.00;99839.34;10409374;28;20119;-80
2022/12/30 16:12:45;;;;;;;2.00;0.52;;;;;;;7.83;100.00;99838.63;10372558;28;20121;-85
2022/12/30 16:17:46;;;;;;;;;;;;;;;7.93;100.00;99850.34;10369608;28;20034;-84
2022/12/30 16:22:47;;;;;;;0.85;0.40;;;;;;;7.95;100.00;99856.53;10364726;28;20096;-83
2022/12/30 16:27:50;;;;;;;0.95;0.50;;;;;;;8.05;100.00;99855.16;10409433;28;20034;-79
2022/12/30 16:32:50;;;;;;;0.80;0.52;;;;;;;8.10;100.00;99847.56;10365843;28;20053;-80
2022/12/30 16:37:51;;;;;;;1.13;0.90;;;;;;;8.22;100.00;99851.53;10381632;28;20102;-81
2022/12/30 16:42:51;;;;;;;1.05;0.55;;;;;;;8.42;100.00;99858.41;10387258;28;20053;-79
2022/12/30 16:47:52;;;;;;;1.38;0.68;;;;;;;8.60;100.00;99861.78;10388702;28;20848;-80
2022/12/30 16:52:52;;;;;;;1.25;0.98;;;;;;;8.77;100.00;99858.94;10376270;28;20109;-78
2022/12/30 16:57:53;;;;;;;2.08;0.40;;;;;;;8.87;100.00;99861.06;10369276;28;20195;-78
2022/12/30 17:02:53;;;;;;;1.05;0.30;;;;;;;9.23;100.00;99857.16;10441402;28;20150;-78
2022/12/30 17:07:54;;;;;;;0.77;0.22;;;;;;;9.36;100.00;99867.22;10365473;28;20144;-79
2022/12/30 17:12:54;;;;;;;0.30;0.28;;;;;;;9.50;100.00;99862.50;10378281;28;20046;-80
2022/12/30 17:17:55;;;;;;;1.10;0.52;;;;;;;9.58;100.00;99861.91;10444463;28;20510;-81
2022/12/30 17:22:57;;;;;;;0.65;0.40;;;;;;;9.70;100.00;99873.66;10432305;28;20103;-81
2022/12/30 17:27:57;;;;;;;0.60;0.30;;;;;;;9.73;100.00;99888.56;10418920;28;20080;-81
2022/12/30 17:32:58;;;;;;;0.30;0.30;;;;;;;9.85;100.00;99890.72;10469981;28;20493;-81
2022/12/30 17:37:58;;;;;;;0.70;0.45;;;;;;;10.02;100.00;99917.44;10437781;28;20041;-81
2022/12/30 17:42:59;;;;;;;0.88;0.38;;;;;;;10.13;100.00;99910.88;10443541;28;20412;-80
2022/12/30 17:47:59;;;;;;;0.70;0.50;;;;;;;10.22;100.00;99923.34;10419885;28;20025;-80
2022/12/30 17:53:00;;;;;;;0.60;0.40;;;;;;;10.17;100.00;99939.72;10442768;28;20044;-80
2022/12/30 17:58:00;;;;;;;1.17;0.60;;;;;;;10.08;100.00;99940.28;10441339;28;20049;-81
2022/12/30 18:03:01;;;;;;;1.95;0.57;;;;;;;10.13;100.00;99957.94;10433591;28;20124;-80
2022/12/30 18:08:01;;;;;;;0.80;0.50;;;;;;;10.32;100.00;99936.72;10397427;28;20144;-82
2022/12/30 18:13:02;;;;;;;0.60;0.40;;;;;;;10.40;100.00;99944.06;10411991;28;20052;-80
2022/12/30 18:18:03;;;;;;;0.80;0.52;;;;;;;10.56;100.00;99949.78;10387215;28;20053;-80
2022/12/30 18:23:05;;;;;;;0.50;0.50;;;;;;;10.63;100.00;99963.94;10423204;28;20517;-81
2022/12/30 18:28:05;;;;;;;1.58;0.90;;;;;;;10.63;100.00;99971.78;10433908;28;20033;-80
2022/12/30 18:33:06;;;;;;;1.52;0.55;;;;;;;10.71;100.00;99975.56;10442232;28;20143;-82
2022/12/30 18:38:06;;;;;;;1.85;0.50;;;;;;;10.85;100.00;99996.97;10460522;28;20041;-82
2022/12/30 18:43:07;;;;;;;1.80;0.70;;;;;;;10.92;100.00;99998.94;10416944;28;20120;-81
2022/12/30 18:48:08;;;;;;;2.03;0.50;;;;;;;10.92;100.00;100011.13;10471611;28;20061;-82
2022/12/30 18:53:09;;;;;;;1.17;0.65;;;;;;;10.98;100.00;100011.31;10436815;28;20455;-86
2022/12/30 18:58:09;;;;;;;1.67;0.77;;;;;;;11.07;100.00;100008.13;10440484;28;20041;-81
2022/12/30 19:03:10;;;;;;;0.90;0.70;;;;;;;11.02;100.00;100027.19;10444078;28;20119;-81
2022/12/30 19:08:10;;;;;;;1.90;1.20;;;;;;;11.11;100.00;100044.91;10424076;28;20025;-81
2022/12/30 19:13:11;;;;;;;1.35;0.60;;;;;;;11.23;100.00;100031.34;10446160;28;20064;-80
2022/12/30 19:18:11;;;;;;;1.90;1.08;;;;;;;11.25;100.00;100045.38;10415254;28;20045;-81
2022/12/30 19:23:12;;;;;;;1.35;0.80;;;;;;;11.24;100.00;100061.03;10435420;28;20061;-83
2022/12/30 19:28:13;;;;;;;1.42;0.70;;;;;;;11.35;100.00;100022.97;10441013;28;20064;-83
2022/12/30 19:33:14;;;;;;;2.17;0.77;;;;;;;11.30;100.00;100056.88;10420262;28;20033;-80
2022/12/30 19:38:15;;;;;;;9.20;1.40;;;;;;;11.25;100.00;100066.34;10436238;28;20040;-80
2022/12/30 19:43:15;;;;;;;1.98;1.10;;;;;;;11.24;100.00;100084.59;10424565;28;20068;-81
2022/12/30 19:48:16;;;;;;;2.72;0.90;;;;;;;11.24;100.00;100092.47;10435322;28;20989;-83
2022/12/30 19:53:16;;;;;;;2.15;0.98;;;;;;;11.21;100.00;100098.50;10440347;28;20052;-81
2022/12/30 19:58:17;;;;;;;2.45;1.27;;;;;;;11.21;100.00;100106.34;10420670;28;20064;-81
2022/12/30 20:03:17;;;;;;;1.25;0.93;;;;;;;11.25;100.00;100109.94;10433064;28;20044;-82
2022/12/30 20:08:18;;;;;;;2.08;1.20;;;;;;;11.27;100.00;100116.13;10462288;28;20630;-82
2022/12/30 20:13:19;;;;;;;1.88;0.77;;;;;;;11.14;100.00;100133.19;10412841;28;20130;-82
2022/12/30 20:18:20;;;;;;;1.05;0.90;;;;;;;11.09;100.00;100134.75;10403177;28;20046;-80
2022/12/30 20:23:21;;;;;;;2.30;1.27;;;;;;;11.09;100.00;100153.09;10390080;28;20951;-82
2022/12/30 20:28:22;;;;;;;3.15;1.35;;;;;;;11.06;100.00;100134.66;10389057;28;20075;-82
2022/12/30 20:33:22;;;;;;;1.45;0.73;;;;;;;11.20;100.00;100149.09;10397180;28;20477;-85
2022/12/30 20:38:23;;;;;;;1.58;1.08;;;;;;;11.29;100.00;100138.94;10379506;28;20140;-79
2022/12/30 20:43:23;;;;;;;1.55;0.85;;;;;;;11.37;100.00;100144.41;10386524;28;20049;-79
2022/12/30 20:48:25;;;;;;;1.25;0.70;;;;;;;11.49;100.00;100151.81;10385855;28;20128;-79
2022/12/30 20:53:26;;;;;;;1.60;1.10;;;;;;;11.45;100.00;100145.56;10399073;28;20045;-80
2022/12/30 20:58:26;;;;;;;1.88;1.40;;;;;;;11.36;100.00;100142.63;10374667;28;20046;-80
2022/12/30 21:03:27;;;;;;;2.03;1.42;;;;;;;11.44;100.00;100148.13;10385330;28;20057;-81
2022/12/30 21:08:29;;;;;;;2.45;1.00;;;;;;;11.47;100.00;100143.00;10384141;28;20048;-81
2022/12/30 21:13:35;;;;;;;1.73;1.10;;;;;;;11.35;100.00;100163.56;10378440;28;20248;-80
2022/12/30 21:18:36;;;;;;;2.88;2.03;;;;;;;11.33;100.00;100167.84;10357669;28;20502;-82
2022/12/30 21:23:37;;;;;;;2.22;1.35;;;;;;;11.29;100.00;100179.94;10396200;28;20039;-83
2022/12/30 21:28:39;;;;;;;2.85;1.40;;;;;;;11.30;100.00;100195.72;10383089;28;20040;-82
2022/12/30 21:33:40;;;;;;;3.05;1.55;;;;;;;11.31;100.00;100187.03;10439567;28;20041;-82
2022/12/30 22:05:26;;;;;;;2.65;1.77;;;;;;;11.53;100.00;100195.59;10462566;28;20115;-82
2022/12/30 22:10:33;;;;;;;2.28;1.17;;;;;;;11.53;100.00;100218.28;10433406;28;20047;-83
2022/12/30 22:15:34;;;;;;;1.90;0.82;;;;;;;11.30;100.00;100239.34;10428793;28;20567;-84
2022/12/30 22:20:34;;;;;;;2.38;1.08;;;;;;;11.21;100.00;100231.19;10476045;28;20039;-84
2022/12/30 22:25:36;;;;;;;1.30;0.98;;;;;;;11.14;100.00;100238.81;10424073;28;20485;-84
2022/12/30 22:30:37;;;;;;;;;;;;;;;11.11;100.00;100238.72;10435557;28;20055;-84
2022/12/30 22:35:43;;;;;;;2.03;1.45;;;;;;;11.12;100.00;100239.63;10436286;28;19931;-83
2022/12/30 22:40:43;;;;;;;2.15;1.27;;;;;;;11.16;100.00;100249.38;10484697;28;20044;-84
2022/12/30 22:45:44;;;;;;;1.92;1.33;;;;;;;11.25;100.00;100249.69;10467638;28;20037;-83
2022/12/30 22:50:44;;;;;;;3.67;2.70;;;;;;;11.27;100.00;100254.97;10465659;28;20453;-83
2022/12/30 22:55:45;;;;;;;3.13;1.75;;;;;;;11.30;100.00;100252.44;10454006;28;20060;-82
2022/12/30 23:00:46;;;;;;;2.17;1.20;;;;;;;11.24;100.00;100257.47;10483399;28;20032;-81
2022/12/30 23:05:47;;;;;;;2.72;0.93;;;;;;;11.22;100.00;100246.97;10422039;28;20045;-81
2022/12/30 23:10:47;;;;;;;1.98;1.10;;;;;;;11.27;100.00;100242.78;10448334;28;20060;-82
2022/12/30 23:16:06;;;;;;;1.88;1.17;;;;;;;11.38;100.00;100234.41;10448688;28;20044;-81
2022/12/30 23:21:20;;;;;;;0.82;0.65;;;;;;;11.38;100.00;100243.13;10457264;28;20497;-82
2022/12/30 23:26:20;;;;;;;2.28;0.98;;;;;;;11.45;100.00;100239.00;10396632;28;20033;-83
2022/12/30 23:31:21;;;;;;;1.60;0.98;;;;;;;11.39;100.00;100251.91;10428997;28;20646;-84
2022/12/30 23:36:21;;;;;;;2.15;1.15;;;;;;;11.33;100.00;100246.44;10413253;28;20036;-84
2022/12/30 23:41:22;;;;;;;1.70;0.80;;;;;;;11.27;100.00;100234.91;10417478;28;20155;-84
2022/12/30 23:46:22;;;;;;;2.90;1.88;;;;;;;11.20;100.00;100240.78;10421238;28;20095;-84
2022/12/30 23:51:23;;;;;;;1.85;1.13;;;;;;;11.21;100.00;100236.41;10434847;28;20100;-84
2022/12/30 23:56:26;;;;;;;1.85;0.95;;;;;;;11.15;100.00;100248.47;10426082;28;20524;-84
